createdAt,value
2019-04-10T00:02:07.787Z,68.17
2019-04-10T00:04:37.393Z,68.48
2019-04-10T00:07:14.419Z,68.57
2019-04-10T00:09:39.260Z,68.26
2019-04-10T00:12:10.152Z,68.29
2019-04-10T00:14:40.775Z,68.21
2019-04-10T00:17:11.132Z,67.75
2019-04-10T00:19:40.828Z,67.59
2019-04-10T00:22:11.693Z,67.47
2019-04-10T00:24:41.391Z,67.46
2019-04-10T00:27:10.957Z,67.64
2019-04-10T00:29:40.530Z,67.94
2019-04-10T00:32:10.105Z,67.87
2019-04-10T00:34:40.052Z,67.65
2019-04-10T00:37:21.313Z,67.67
2019-04-10T00:39:42.478Z,67.12
2019-04-10T00:42:12.642Z,66.63
2019-04-10T00:44:42.239Z,66.79
2019-04-10T00:47:12.805Z,66.71
2019-04-10T00:49:42.414Z,66.59
2019-04-10T00:52:12.170Z,66.87
2019-04-10T00:54:41.738Z,66.83
2019-04-10T00:57:11.357Z,67.04
2019-04-10T00:59:42.068Z,67.11
2019-04-10T01:02:12.210Z,67.01
2019-04-10T01:04:42.571Z,67.22
2019-04-10T01:07:12.725Z,67.19
2019-04-10T01:09:42.394Z,66.39
2019-04-10T01:12:11.965Z,66.23
2019-04-10T01:14:42.170Z,65.86
2019-04-10T01:17:11.840Z,66.53
2019-04-10T01:19:41.873Z,66.89
2019-04-10T01:22:11.494Z,68.03
2019-04-10T01:24:41.751Z,68.79
2019-04-10T01:27:11.785Z,69.25
2019-04-10T01:29:41.905Z,70.04
2019-04-10T01:32:12.020Z,69.05
2019-04-10T01:34:41.575Z,69.25
2019-04-10T01:37:11.148Z,69.30
2019-04-10T01:39:41.046Z,68.94
2019-04-10T01:42:12.473Z,68.38
2019-04-10T01:44:42.119Z,67.77
2019-04-10T01:47:11.699Z,68.45
2019-04-10T01:49:41.916Z,68.37
2019-04-10T01:52:11.596Z,68.74
2019-04-10T01:54:43.150Z,68.80
2019-04-10T01:57:13.166Z,68.46
2019-04-10T01:59:42.855Z,68.39
2019-04-10T02:02:14.805Z,68.25
2019-04-10T02:04:44.412Z,68.90
2019-04-10T02:07:16.100Z,68.91
2019-04-10T02:09:45.972Z,69.25
2019-04-10T02:12:16.662Z,68.59
2019-04-10T02:14:46.808Z,67.95
2019-04-10T02:17:16.818Z,67.94
2019-04-10T02:19:46.508Z,67.55
2019-04-10T02:22:16.142Z,67.07
2019-04-10T02:24:45.663Z,67.76
2019-04-10T02:27:16.234Z,67.50
2019-04-10T02:29:46.107Z,67.25
2019-04-10T02:32:16.635Z,67.94
2019-04-10T02:34:49.138Z,67.42
2019-04-10T02:37:19.370Z,67.28
2019-04-10T02:39:52.848Z,67.17
2019-04-10T02:42:20.805Z,67.02
2019-04-10T02:44:52.018Z,67.36
2019-04-10T02:47:23.064Z,67.21
2019-04-10T02:49:54.283Z,66.86
2019-04-10T02:52:24.568Z,67.12
2019-04-10T02:54:54.302Z,67.28
2019-04-10T02:57:25.290Z,67.57
2019-04-10T02:59:55.827Z,67.92
2019-04-10T03:02:26.619Z,67.31
2019-04-10T03:04:57.329Z,66.88
2019-04-10T03:07:28.346Z,67.00
2019-04-10T03:10:10.261Z,66.92
2019-04-10T03:12:30.163Z,66.92
2019-04-10T03:15:01.074Z,66.88
2019-04-10T03:17:30.787Z,66.29
2019-04-10T03:20:00.359Z,65.78
2019-04-10T03:22:30.076Z,66.08
2019-04-10T03:25:00.308Z,65.85
2019-04-10T03:27:30.274Z,65.34
2019-04-10T03:30:00.192Z,65.24
2019-04-10T03:32:47.709Z,65.55
2019-04-10T03:35:27.038Z,65.37
2019-04-10T03:37:57.398Z,65.19
2019-04-10T03:40:29.223Z,65.26
2019-04-10T03:42:58.853Z,64.87
2019-04-10T03:45:28.596Z,65.11
2019-04-10T03:47:58.266Z,64.96
2019-04-10T03:50:27.861Z,65.04
2019-04-10T03:52:57.929Z,65.47
2019-04-10T03:55:27.547Z,65.22
2019-04-10T03:57:57.125Z,64.89
2019-04-10T04:00:27.801Z,66.03
2019-04-10T04:02:57.444Z,65.92
2019-04-10T04:05:27.028Z,66.31
2019-04-10T04:07:57.144Z,65.12
2019-04-10T04:10:28.776Z,65.72
2019-04-10T04:13:00.002Z,66.63
2019-04-10T04:15:30.321Z,66.47
2019-04-10T04:18:00.342Z,66.76
2019-04-10T04:20:30.706Z,66.50
2019-04-10T04:23:01.366Z,66.41
2019-04-10T04:25:32.427Z,66.65
2019-04-10T04:28:02.578Z,67.04
2019-04-10T04:30:32.213Z,66.44
2019-04-10T04:33:02.513Z,66.87
2019-04-10T04:35:32.560Z,67.14
2019-04-10T04:38:02.544Z,67.36
2019-04-10T04:40:32.271Z,66.42
2019-04-10T04:43:01.844Z,66.08
2019-04-10T04:45:31.409Z,66.40
2019-04-10T04:48:01.858Z,66.13
2019-04-10T04:50:31.607Z,65.88
2019-04-10T04:53:01.165Z,66.00
2019-04-10T04:55:31.038Z,65.38
2019-04-10T04:58:00.751Z,66.19
2019-04-10T05:00:30.337Z,66.17
2019-04-10T05:02:59.881Z,66.50
2019-04-10T05:05:29.460Z,66.38
2019-04-10T05:08:02.238Z,66.65
2019-04-10T05:10:31.346Z,66.67
2019-04-10T05:13:02.003Z,67.24
2019-04-10T05:15:31.677Z,67.29
2019-04-10T05:18:02.023Z,67.78
2019-04-10T05:20:44.125Z,67.60
2019-04-10T05:23:04.516Z,67.19
2019-04-10T05:25:34.557Z,67.84
2019-04-10T05:28:05.714Z,67.65
2019-04-10T05:30:35.742Z,69.18
2019-04-10T05:33:06.306Z,68.72
2019-04-10T05:35:36.437Z,68.91
2019-04-10T05:38:06.065Z,67.71
2019-04-10T05:40:36.653Z,68.72
2019-04-10T05:43:06.352Z,69.44
2019-04-10T05:45:35.972Z,67.54
2019-04-10T05:48:06.693Z,67.56
2019-04-10T05:50:37.757Z,67.86
2019-04-10T05:53:07.788Z,67.20
2019-04-10T05:55:38.375Z,67.52
2019-04-10T05:58:09.184Z,67.66
2019-04-10T06:00:38.883Z,68.00
2019-04-10T06:03:08.449Z,67.82
2019-04-10T06:05:38.296Z,68.36
2019-04-10T06:08:07.919Z,68.75
2019-04-10T06:10:37.539Z,69.18
2019-04-10T06:13:07.092Z,68.81
2019-04-10T06:15:37.205Z,67.92
2019-04-10T06:18:07.107Z,68.51
2019-04-10T06:20:37.627Z,68.69
2019-04-10T06:23:07.474Z,68.96
2019-04-10T06:25:39.419Z,68.00
2019-04-10T06:28:09.423Z,67.70
2019-04-10T06:30:39.806Z,67.89
2019-04-10T06:33:09.747Z,67.95
2019-04-10T06:35:39.876Z,68.17
2019-04-10T06:38:10.715Z,67.63
2019-04-10T06:40:40.311Z,68.83
2019-04-10T06:43:09.894Z,68.76
2019-04-10T06:45:39.908Z,69.27
2019-04-10T06:48:09.595Z,68.80
2019-04-10T06:50:39.286Z,68.70
2019-04-10T06:53:08.807Z,68.19
2019-04-10T06:55:38.579Z,68.57
2019-04-10T06:58:08.209Z,68.38
2019-04-10T07:00:38.957Z,68.57
2019-04-10T07:03:08.652Z,68.09
2019-04-10T07:05:49.670Z,68.35
2019-04-10T07:08:16.003Z,68.99
2019-04-10T07:10:52.130Z,68.76
2019-04-10T07:13:13.398Z,67.80
2019-04-10T07:15:45.165Z,68.17
2019-04-10T07:18:18.243Z,68.38
2019-04-10T07:20:46.178Z,68.05
2019-04-10T07:23:23.414Z,68.13
2019-04-10T07:25:48.406Z,67.82
2019-04-10T07:28:18.035Z,67.85
2019-04-10T07:30:47.856Z,67.36
2019-04-10T07:33:19.446Z,66.81
2019-04-10T07:35:49.874Z,66.37
2019-04-10T07:38:21.262Z,66.40
2019-04-10T07:40:51.288Z,66.61
2019-04-10T07:43:24.677Z,66.22
2019-04-10T07:45:56.653Z,66.76
2019-04-10T07:48:25.015Z,66.78
2019-04-10T07:50:55.701Z,67.09
2019-04-10T07:53:26.715Z,67.75
2019-04-10T07:56:05.363Z,68.01
2019-04-10T07:58:29.186Z,68.19
2019-04-10T08:00:58.972Z,67.45
2019-04-10T08:03:28.819Z,67.90
2019-04-10T08:05:58.457Z,68.08
2019-04-10T08:08:28.029Z,67.57
2019-04-10T08:10:57.591Z,66.58
2019-04-10T08:13:27.149Z,66.93
2019-04-10T08:15:56.725Z,65.92
2019-04-10T08:18:27.455Z,66.12
2019-04-10T08:20:57.321Z,65.73
2019-04-10T08:23:28.022Z,65.22
2019-04-10T08:25:58.062Z,65.39
2019-04-10T08:28:30.672Z,64.57
2019-04-10T08:31:01.027Z,64.49
2019-04-10T08:33:30.653Z,63.74
2019-04-10T08:36:01.156Z,63.78
2019-04-10T08:38:30.857Z,63.15
2019-04-10T08:41:00.780Z,63.31
2019-04-10T08:43:31.236Z,62.71
2019-04-10T08:46:03.365Z,61.61
2019-04-10T08:48:33.149Z,61.19
2019-04-10T08:51:03.135Z,61.40
2019-04-10T08:53:32.708Z,61.66
2019-04-10T08:56:02.481Z,61.12
2019-04-10T08:58:33.337Z,60.83
2019-04-10T09:01:03.182Z,60.63
2019-04-10T09:03:33.023Z,59.79
2019-04-10T09:06:02.976Z,58.11
2019-04-10T09:08:32.896Z,56.04
2019-04-10T09:11:02.988Z,55.94
2019-04-10T09:13:32.728Z,55.85
2019-04-10T09:16:02.553Z,56.11
2019-04-10T09:18:32.128Z,55.66
2019-04-10T09:21:02.774Z,53.93
2019-04-10T09:23:40.735Z,53.52
2019-04-10T09:26:03.928Z,54.11
2019-04-10T09:28:33.494Z,53.00
2019-04-10T09:31:03.446Z,52.12
2019-04-10T09:33:33.102Z,50.87
2019-04-10T09:36:02.789Z,51.26
2019-04-10T09:38:32.327Z,50.60
2019-04-10T09:41:01.988Z,51.12
2019-04-10T09:43:31.822Z,52.00
2019-04-10T09:46:02.303Z,51.39
2019-04-10T09:48:32.015Z,50.49
2019-04-10T09:51:01.645Z,50.92
2019-04-10T09:53:31.228Z,51.26
2019-04-10T09:56:01.032Z,52.19
2019-04-10T09:58:31.771Z,51.46
2019-04-10T10:01:03.266Z,49.45
2019-04-10T10:03:32.852Z,48.41
2019-04-10T10:06:04.483Z,47.48
2019-04-10T10:08:34.056Z,47.51
2019-04-10T10:11:04.068Z,47.47
2019-04-10T10:13:33.969Z,47.59
2019-04-10T10:16:03.625Z,48.10
2019-04-10T10:18:33.235Z,48.77
2019-04-10T10:21:04.004Z,47.03
2019-04-10T10:23:33.905Z,45.35
2019-04-10T10:26:03.840Z,46.46
2019-04-10T10:28:33.455Z,46.68
2019-04-10T10:31:04.058Z,46.80
2019-04-10T10:33:34.093Z,46.95
2019-04-10T10:36:03.726Z,46.44
2019-04-10T10:38:33.369Z,46.89
2019-04-10T10:41:02.947Z,46.91
2019-04-10T10:43:32.608Z,45.89
2019-04-10T10:46:03.062Z,46.28
2019-04-10T10:48:34.109Z,46.51
2019-04-10T10:51:04.600Z,48.14
2019-04-10T10:53:34.588Z,46.48
2019-04-10T10:56:04.374Z,47.57
2019-04-10T10:58:33.941Z,46.60
2019-04-10T11:01:03.520Z,45.71
2019-04-10T11:03:34.067Z,46.40
2019-04-10T11:06:06.590Z,46.32
2019-04-10T11:08:37.296Z,45.21
2019-04-10T11:11:06.857Z,45.82
2019-04-10T11:13:37.098Z,45.91
2019-04-10T11:16:07.523Z,44.88
2019-04-10T11:18:38.032Z,45.00
2019-04-10T11:21:11.302Z,44.22
2019-04-10T11:23:40.291Z,42.89
2019-04-10T11:26:11.044Z,44.73
2019-04-10T11:28:41.859Z,42.72
2019-04-10T11:31:11.614Z,43.14
2019-04-10T11:33:41.288Z,43.65
2019-04-10T11:36:12.461Z,43.54
2019-04-10T11:38:42.901Z,43.19
2019-04-10T11:41:14.972Z,40.16
2019-04-10T11:43:47.890Z,40.63
2019-04-10T11:46:17.563Z,41.13
2019-04-10T11:48:47.144Z,40.44
2019-04-10T11:51:16.787Z,40.83
2019-04-10T11:53:50.761Z,41.62
2019-04-10T11:56:19.265Z,40.58
2019-04-10T11:58:55.445Z,40.74
2019-04-10T12:01:22.640Z,39.81
2019-04-10T12:03:54.476Z,40.23
2019-04-10T12:06:25.264Z,41.33
2019-04-10T12:09:19.448Z,40.03
2019-04-10T12:11:25.809Z,41.21
2019-04-10T12:13:55.404Z,41.52
2019-04-10T12:16:25.202Z,41.51
2019-04-10T12:18:55.945Z,40.93
2019-04-10T12:21:26.213Z,40.03
2019-04-10T12:23:56.898Z,40.57
2019-04-10T12:26:27.576Z,39.96
2019-04-10T12:28:58.242Z,39.88
2019-04-10T12:31:28.151Z,40.00
2019-04-10T12:33:57.738Z,41.00
2019-04-10T12:36:27.323Z,40.07
2019-04-10T12:38:56.889Z,39.59
2019-04-10T12:41:27.630Z,39.37
2019-04-10T12:43:57.383Z,38.52
2019-04-10T12:46:26.953Z,37.46
2019-04-10T12:48:56.554Z,38.36
2019-04-10T12:51:26.110Z,37.74
2019-04-10T12:53:56.169Z,38.43
2019-04-10T12:56:26.158Z,37.91
2019-04-10T12:58:55.820Z,39.70
2019-04-10T13:01:25.402Z,40.29
2019-04-10T13:03:57.616Z,40.47
2019-04-10T13:06:27.575Z,39.84
2019-04-10T13:09:05.723Z,40.40
2019-04-10T13:11:28.970Z,40.57
2019-04-10T13:14:00.180Z,40.14
2019-04-10T13:16:29.975Z,40.17
2019-04-10T13:19:00.579Z,40.55
2019-04-10T13:21:30.507Z,40.08
2019-04-10T13:24:03.646Z,39.47
2019-04-10T13:26:35.407Z,40.32
2019-04-10T13:29:05.773Z,39.05
2019-04-10T13:31:35.588Z,38.61
2019-04-10T13:34:06.695Z,38.48
2019-04-10T13:36:37.917Z,38.16
2019-04-10T13:39:08.760Z,38.41
2019-04-10T13:41:40.701Z,38.27
2019-04-10T13:44:10.749Z,38.83
2019-04-10T13:46:40.722Z,38.55
2019-04-10T13:49:11.391Z,38.07
2019-04-10T13:51:41.118Z,37.66
2019-04-10T13:54:10.701Z,37.64
2019-04-10T13:56:41.272Z,37.45
2019-04-10T13:59:10.995Z,36.95
2019-04-10T14:01:41.747Z,38.40
2019-04-10T14:04:11.377Z,37.00
2019-04-10T14:06:41.481Z,36.77
2019-04-10T14:09:30.141Z,36.57
2019-04-10T14:11:49.546Z,36.31
2019-04-10T14:14:20.258Z,36.25
2019-04-10T14:16:51.513Z,35.73
2019-04-10T14:19:21.447Z,35.19
2019-04-10T14:21:53.489Z,36.27
2019-04-10T14:24:24.838Z,35.26
2019-04-10T14:26:56.663Z,35.63
2019-04-10T14:29:26.895Z,34.92
2019-04-10T14:32:05.014Z,35.92
2019-04-10T14:34:34.678Z,34.87
2019-04-10T14:37:06.013Z,33.77
2019-04-10T14:39:35.941Z,35.79
2019-04-10T14:42:06.524Z,33.60
2019-04-10T14:44:36.790Z,34.19
2019-04-10T14:47:06.636Z,34.34
2019-04-10T14:49:37.487Z,34.25
2019-04-10T14:52:07.199Z,34.84
2019-04-10T14:54:37.601Z,34.48
2019-04-10T14:57:07.419Z,34.49
2019-04-10T14:59:37.241Z,33.35
2019-04-10T15:02:08.572Z,33.70
2019-04-10T15:04:39.400Z,33.54
2019-04-10T15:07:10.075Z,33.30
2019-04-10T15:09:39.934Z,32.81
2019-04-10T15:12:10.064Z,32.21
2019-04-10T15:14:39.977Z,31.97
2019-04-10T15:17:09.849Z,31.26
2019-04-10T15:19:40.546Z,30.33
2019-04-10T15:22:13.741Z,31.05
2019-04-10T15:24:43.451Z,31.25
2019-04-10T15:27:13.213Z,31.51
2019-04-10T15:29:42.972Z,31.70
2019-04-10T15:32:12.840Z,32.23
2019-04-10T15:34:43.669Z,32.25
2019-04-10T15:37:13.343Z,27.79
2019-04-10T15:39:43.604Z,25.92
2019-04-10T15:42:14.450Z,28.24
2019-04-10T15:44:44.089Z,28.42
2019-04-10T15:47:19.856Z,29.11
2019-04-10T15:49:45.045Z,30.82
2019-04-10T15:52:14.624Z,32.01
2019-04-10T15:54:44.195Z,32.37
2019-04-10T15:57:16.395Z,32.71
2019-04-10T15:59:46.369Z,32.86
2019-04-10T16:02:16.416Z,34.07
2019-04-10T16:04:46.072Z,33.79
2019-04-10T16:07:16.101Z,34.86
2019-04-10T16:09:50.716Z,34.98
2019-04-10T16:12:20.712Z,34.53
2019-04-10T16:14:50.688Z,34.62
2019-04-10T16:17:29.263Z,32.46
2019-04-10T16:20:17.559Z,33.32
2019-04-10T16:22:54.272Z,33.82
2019-04-10T16:25:30.082Z,33.55
2019-04-10T16:28:02.129Z,33.54
2019-04-10T16:30:32.978Z,34.03
2019-04-10T16:33:02.982Z,34.47
2019-04-10T16:35:35.241Z,34.18
2019-04-10T16:38:05.680Z,34.63
2019-04-10T16:40:36.679Z,34.87
2019-04-10T16:43:07.985Z,34.64
2019-04-10T16:45:38.529Z,35.05
2019-04-10T16:48:08.606Z,34.56
2019-04-10T16:50:38.500Z,35.11
2019-04-10T16:53:09.784Z,34.67
2019-04-10T16:55:39.534Z,34.72
2019-04-10T16:58:09.604Z,34.83
2019-04-10T17:00:39.701Z,34.86
2019-04-10T17:03:09.389Z,35.61
2019-04-10T17:05:39.740Z,35.45
2019-04-10T17:08:09.789Z,35.20
2019-04-10T17:10:40.670Z,35.16
2019-04-10T17:13:10.756Z,35.44
2019-04-10T17:15:40.548Z,35.53
2019-04-10T17:18:10.832Z,35.58
2019-04-10T17:20:40.600Z,36.25
2019-04-10T17:23:10.205Z,36.29
2019-04-10T17:25:39.770Z,36.62
2019-04-10T17:28:10.216Z,36.73
2019-04-10T17:30:40.155Z,36.81
2019-04-10T17:33:11.036Z,37.14
2019-04-10T17:35:41.044Z,37.35
2019-04-10T17:38:10.605Z,37.14
2019-04-10T17:40:47.682Z,37.78
2019-04-10T17:43:12.790Z,37.17
2019-04-10T17:45:42.919Z,37.72
2019-04-10T17:48:13.574Z,37.23
2019-04-10T17:50:43.822Z,37.25
2019-04-10T17:53:15.194Z,37.57
2019-04-10T17:55:45.074Z,37.67
2019-04-10T17:58:14.771Z,38.07
2019-04-10T18:00:47.177Z,38.49
2019-04-10T18:03:18.615Z,38.67
2019-04-10T18:05:48.306Z,38.84
2019-04-10T18:08:18.854Z,38.66
2019-04-10T18:10:52.216Z,39.29
2019-04-10T18:13:20.535Z,38.75
2019-04-10T18:15:50.569Z,38.79
2019-04-10T18:18:20.338Z,39.56
2019-04-10T18:20:51.063Z,39.06
2019-04-10T18:23:20.700Z,38.88
2019-04-10T18:25:50.362Z,38.35
2019-04-10T18:28:21.270Z,38.50
2019-04-10T18:30:50.972Z,38.74
2019-04-10T18:33:20.545Z,38.90
2019-04-10T18:35:51.102Z,40.01
2019-04-10T18:38:21.619Z,39.43
2019-04-10T18:40:55.715Z,39.54
2019-04-10T18:43:22.562Z,39.62
2019-04-10T18:46:03.477Z,39.43
2019-04-10T18:48:23.535Z,39.78
2019-04-10T18:50:53.756Z,40.18
2019-04-10T18:53:24.685Z,39.82
2019-04-10T18:55:54.566Z,39.39
2019-04-10T18:58:25.770Z,39.19
2019-04-10T19:01:14.276Z,39.41
2019-04-10T19:03:52.608Z,39.53
2019-04-10T19:06:20.735Z,39.57
2019-04-10T19:09:04.774Z,39.79
2019-04-10T19:11:25.008Z,39.58
2019-04-10T19:13:53.119Z,40.14
2019-04-10T19:16:23.491Z,39.54
2019-04-10T19:18:53.763Z,39.84
2019-04-10T19:21:24.513Z,40.00
2019-04-10T19:23:55.497Z,39.61
2019-04-10T19:26:25.315Z,40.30
2019-04-10T19:28:54.970Z,40.03
2019-04-10T19:31:26.193Z,40.13
2019-04-10T19:33:56.777Z,40.08
2019-04-10T19:36:26.534Z,40.58
2019-04-10T19:38:56.118Z,40.62
2019-04-10T19:41:32.000Z,40.57
2019-04-10T19:43:57.035Z,41.12
2019-04-10T19:46:26.687Z,40.87
2019-04-10T19:48:57.554Z,40.75
2019-04-10T19:51:27.391Z,40.74
2019-04-10T19:53:57.631Z,40.62
2019-04-10T19:56:28.584Z,41.02
2019-04-10T19:58:58.653Z,41.12
2019-04-10T20:01:30.061Z,41.02
2019-04-10T20:03:59.872Z,40.49
2019-04-10T20:06:30.120Z,40.87
2019-04-10T20:09:00.075Z,41.41
2019-04-10T20:11:36.629Z,41.41
2019-04-10T20:14:01.653Z,41.36
2019-04-10T20:16:31.342Z,41.63
2019-04-10T20:19:01.329Z,41.55
2019-04-10T20:21:32.146Z,41.23
2019-04-10T20:24:02.724Z,41.52
2019-04-10T20:26:33.499Z,41.93
2019-04-10T20:29:03.049Z,41.41
2019-04-10T20:31:34.266Z,41.84
2019-04-10T20:34:03.905Z,42.16
2019-04-10T20:36:33.495Z,42.02
2019-04-10T20:39:05.951Z,42.37
2019-04-10T20:41:47.593Z,42.04
2019-04-10T20:44:07.296Z,42.35
2019-04-10T20:46:38.113Z,42.40
2019-04-10T20:49:08.504Z,42.10
2019-04-10T20:51:38.118Z,42.19
2019-04-10T20:54:08.619Z,42.38
2019-04-10T20:56:38.979Z,42.34
2019-04-10T20:59:09.857Z,42.00
2019-04-10T21:01:39.527Z,42.03
2019-04-10T21:04:09.512Z,42.32
2019-04-10T21:06:41.822Z,42.36
2019-04-10T21:09:11.601Z,42.38
2019-04-10T21:11:41.855Z,42.50
2019-04-10T21:14:13.446Z,43.22
2019-04-10T21:16:42.766Z,42.67
2019-04-10T21:19:12.884Z,42.97
2019-04-10T21:21:43.424Z,42.65
2019-04-10T21:24:13.342Z,42.85
2019-04-10T21:26:44.046Z,42.86
2019-04-10T21:29:31.985Z,43.41
2019-04-10T21:32:03.310Z,43.25
2019-04-10T21:34:35.475Z,46.14
2019-04-10T21:37:06.081Z,44.77
2019-04-10T21:39:36.071Z,45.03
2019-04-10T21:42:16.073Z,44.60
2019-04-10T21:44:37.209Z,45.08
2019-04-10T21:47:06.835Z,45.43
2019-04-10T21:49:36.401Z,45.63
2019-04-10T21:52:05.982Z,44.37
2019-04-10T21:54:37.856Z,46.50
2019-04-10T21:57:07.585Z,43.88
2019-04-10T21:59:37.360Z,45.24
2019-04-10T22:02:07.446Z,44.53
2019-04-10T22:04:39.121Z,45.08
2019-04-10T22:07:13.969Z,44.54
2019-04-10T22:09:51.300Z,45.16
2019-04-10T22:12:30.674Z,45.62
2019-04-10T22:14:56.107Z,45.06
2019-04-10T22:17:26.857Z,44.54
2019-04-10T22:19:56.423Z,46.79
2019-04-10T22:22:26.695Z,46.26
2019-04-10T22:24:56.948Z,46.64
2019-04-10T22:27:27.529Z,45.38
2019-04-10T22:29:58.375Z,44.72
2019-04-10T22:32:29.053Z,44.49
2019-04-10T22:34:59.059Z,45.42
2019-04-10T22:37:29.789Z,45.17
2019-04-10T22:39:59.401Z,46.12
2019-04-10T22:42:39.214Z,45.14
2019-04-10T22:45:00.391Z,45.98
2019-04-10T22:47:32.995Z,45.90
2019-04-10T22:50:03.475Z,46.98
2019-04-10T22:52:33.118Z,46.29
2019-04-10T22:55:03.663Z,46.85
2019-04-10T22:57:33.332Z,46.98
2019-04-10T23:00:03.310Z,48.26
2019-04-10T23:02:33.029Z,47.56
2019-04-10T23:05:02.590Z,48.16
2019-04-10T23:07:32.157Z,46.94
2019-04-10T23:10:02.596Z,48.26
2019-04-10T23:12:32.178Z,48.21
2019-04-10T23:15:02.914Z,48.93
2019-04-10T23:17:32.733Z,48.39
2019-04-10T23:20:02.832Z,47.42
2019-04-10T23:22:33.337Z,47.94
2019-04-10T23:25:04.429Z,48.01
2019-04-10T23:27:34.036Z,49.16
2019-04-10T23:30:07.148Z,48.51
2019-04-10T23:32:37.481Z,48.14
2019-04-10T23:35:07.464Z,48.79
2019-04-10T23:37:37.609Z,48.98
2019-04-10T23:40:08.401Z,48.33
2019-04-10T23:42:37.985Z,48.96
2019-04-10T23:45:09.155Z,48.39
2019-04-10T23:47:38.749Z,49.01
2019-04-10T23:50:08.524Z,49.20
2019-04-10T23:52:38.144Z,49.62
2019-04-10T23:55:10.025Z,49.12
2019-04-10T23:57:39.664Z,48.55
